createdAt,value
2019-03-21T00:01:45.046Z,1039
2019-03-21T00:06:44.842Z,1039
2019-03-21T00:11:44.926Z,1038.9
2019-03-21T00:16:44.827Z,1038.9
2019-03-21T00:21:44.959Z,1038.9
2019-03-21T00:26:44.859Z,1039
2019-03-21T00:31:45.041Z,1039
2019-03-21T00:36:44.967Z,1039
2019-03-21T00:41:44.831Z,1039
2019-03-21T00:46:45.039Z,1038.9
2019-03-21T00:51:44.963Z,1038.9
2019-03-21T00:56:44.944Z,1039
2019-03-21T01:01:45.047Z,1039.1
2019-03-21T01:06:45.085Z,1039
2019-03-21T01:11:45.003Z,1039
2019-03-21T01:16:44.854Z,1039.1
2019-03-21T01:21:44.855Z,1039
2019-03-21T01:26:44.862Z,1039.1
2019-03-21T01:31:45.054Z,1039.1
2019-03-21T01:36:44.852Z,1039.1
2019-03-21T01:41:44.887Z,1039.1
2019-03-21T01:46:44.865Z,1039.1
2019-03-21T01:51:44.860Z,1039.2
2019-03-21T01:56:45.014Z,1039.2
2019-03-21T02:01:45.046Z,1039.3
2019-03-21T02:06:44.892Z,1039.1
2019-03-21T02:11:45.119Z,1039.2
2019-03-21T02:16:44.989Z,1039.1
2019-03-21T02:21:45.110Z,1039.1
2019-03-21T02:26:45.135Z,1039.2
2019-03-21T02:31:44.920Z,1039.1
2019-03-21T02:36:45.090Z,1039.1
2019-03-21T02:41:45.044Z,1039.1
2019-03-21T02:46:45.041Z,1039.1
2019-03-21T02:51:45.068Z,1039
2019-03-21T02:56:45.140Z,1039
2019-03-21T03:01:45.226Z,1039
2019-03-21T03:06:45.074Z,1038.9
2019-03-21T03:11:45.149Z,1038.8
2019-03-21T03:16:45.047Z,1038.8
2019-03-21T03:21:45.086Z,1038.6
2019-03-21T03:26:44.951Z,1038.5
2019-03-21T03:31:45.126Z,1038.6
2019-03-21T03:36:44.924Z,1038.5
2019-03-21T03:41:44.940Z,1038.5
2019-03-21T03:46:44.923Z,1038.4
2019-03-21T03:51:45.101Z,1038.6
2019-03-21T03:56:44.934Z,1038.6
2019-03-21T04:01:45.150Z,1038.7
2019-03-21T04:06:44.948Z,1038.7
2019-03-21T04:11:45.150Z,1038.6
2019-03-21T04:16:44.926Z,1038.6
2019-03-21T04:21:44.965Z,1038.6
2019-03-21T04:26:44.988Z,1038.5
2019-03-21T04:31:44.961Z,1038.6
2019-03-21T04:36:44.960Z,1038.5
2019-03-21T04:41:45.172Z,1038.5
2019-03-21T04:46:44.926Z,1038.5
2019-03-21T04:51:45.186Z,1038.4
2019-03-21T04:56:45.120Z,1038.3
2019-03-21T05:01:44.995Z,1038.4
2019-03-21T05:06:44.971Z,1038.3
2019-03-21T05:11:45.249Z,1038.4
2019-03-21T05:16:45.172Z,1038.4
2019-03-21T05:21:45.204Z,1038.4
2019-03-21T05:26:44.983Z,1038.5
2019-03-21T05:31:45.008Z,1038.5
2019-03-21T05:36:45.198Z,1038.6
2019-03-21T05:41:45.071Z,1038.6
2019-03-21T05:46:44.978Z,1038.7
2019-03-21T05:51:44.992Z,1038.8
2019-03-21T05:56:44.999Z,1038.9
2019-03-21T06:01:45.126Z,1038.9
2019-03-21T06:06:45.066Z,1038.9
2019-03-21T06:11:45.234Z,1038.9
2019-03-21T06:16:45.012Z,1039
2019-03-21T06:21:45.195Z,1039.1
2019-03-21T06:26:45.235Z,1039
2019-03-21T06:31:45.150Z,1039
2019-03-21T06:36:45.153Z,1038.9
2019-03-21T06:41:45.262Z,1038.9
2019-03-21T06:46:50.160Z,1038.8
2019-03-21T06:51:45.152Z,1038.7
2019-03-21T06:56:45.069Z,1038.7
2019-03-21T07:01:45.261Z,1038.5
2019-03-21T07:06:45.192Z,1038.4
2019-03-21T07:11:45.048Z,1038.3
2019-03-21T07:16:45.041Z,1038.2
2019-03-21T07:21:45.046Z,1038.3
2019-03-21T07:26:45.025Z,1038.2
2019-03-21T07:31:45.288Z,1038.3
2019-03-21T07:36:45.197Z,1038.1
2019-03-21T07:41:45.061Z,1038.1
2019-03-21T07:46:45.059Z,1038
2019-03-21T07:51:45.691Z,1038
2019-03-21T07:56:45.069Z,1038
2019-03-21T08:01:45.062Z,1037.8
2019-03-21T08:06:45.301Z,1037.8
2019-03-21T08:11:45.083Z,1037.9
2019-03-21T08:16:45.076Z,1037.7
2019-03-21T08:21:45.282Z,1037.8
2019-03-21T08:26:45.239Z,1037.7
2019-03-21T08:31:45.280Z,1037.5
2019-03-21T08:36:45.323Z,1037.5
2019-03-21T08:41:45.223Z,1037.4
2019-03-21T08:46:45.074Z,1037.3
2019-03-21T08:51:45.311Z,1037.3
2019-03-21T08:56:45.194Z,1037.1
2019-03-21T09:01:45.109Z,1037
2019-03-21T09:06:45.121Z,1037.1
2019-03-21T09:11:45.239Z,1037.1
2019-03-21T09:16:45.283Z,1036.9
2019-03-21T09:21:45.118Z,1036.9
2019-03-21T09:26:45.351Z,1036.8
2019-03-21T09:31:45.267Z,1036.7
2019-03-21T09:36:45.123Z,1036.6
2019-03-21T09:41:45.122Z,1036.5
2019-03-21T09:46:51.570Z,1036.4
2019-03-21T09:51:45.149Z,1036.5
2019-03-21T09:56:45.371Z,1036.5
2019-03-21T10:01:45.269Z,1036.4
2019-03-21T10:06:45.262Z,1036.4
2019-03-21T10:11:45.350Z,1036.3
2019-03-21T10:16:45.151Z,1036.2
2019-03-21T10:21:45.139Z,1036.2
2019-03-21T10:26:45.167Z,1036.1
2019-03-21T10:31:45.278Z,1036
2019-03-21T10:36:45.294Z,1035.8
2019-03-21T10:41:45.358Z,1036
2019-03-21T10:46:45.165Z,1035.9
2019-03-21T10:51:55.698Z,1035.7
2019-03-21T10:56:45.274Z,1035.6
2019-03-21T11:01:45.151Z,1035.7
2019-03-21T11:06:45.176Z,1035.7
2019-03-21T11:11:45.174Z,1035.6
2019-03-21T11:16:45.192Z,1035.4
2019-03-21T11:21:45.160Z,1035.3
2019-03-21T11:26:45.158Z,1035.2
2019-03-21T11:31:45.167Z,1035.2
2019-03-21T11:36:45.167Z,1035
2019-03-21T11:41:45.357Z,1034.8
2019-03-21T11:46:45.457Z,1034.7
2019-03-21T11:51:45.446Z,1034.7
2019-03-21T11:56:45.335Z,1034.6
2019-03-21T12:01:45.195Z,1034.6
2019-03-21T12:06:45.260Z,1034.4
2019-03-21T12:11:45.196Z,1034.3
2019-03-21T12:16:45.187Z,1034.3
2019-03-21T12:21:45.452Z,1034.2
2019-03-21T12:26:45.347Z,1034.1
2019-03-21T12:31:45.198Z,1034.1
2019-03-21T12:36:45.418Z,1034
2019-03-21T12:41:45.341Z,1034
2019-03-21T12:46:45.239Z,1033.7
2019-03-21T12:51:46.409Z,1033.6
2019-03-21T12:56:45.375Z,1033.6
2019-03-21T13:01:45.488Z,1033.4
2019-03-21T13:06:45.424Z,1033.5
2019-03-21T13:11:45.489Z,1033.4
2019-03-21T13:16:45.209Z,1033.2
2019-03-21T13:21:45.479Z,1033.1
2019-03-21T13:26:45.338Z,1033.1
2019-03-21T13:31:45.244Z,1033
2019-03-21T13:36:45.464Z,1032.9
2019-03-21T13:41:45.471Z,1032.9
2019-03-21T13:46:45.375Z,1032.8
2019-03-21T13:51:45.265Z,1032.8
2019-03-21T13:56:45.482Z,1032.7
2019-03-21T14:01:45.406Z,1032.6
2019-03-21T14:06:45.408Z,1032.6
2019-03-21T14:11:45.399Z,1032.6
2019-03-21T14:16:45.564Z,1032.6
2019-03-21T14:21:45.443Z,1032.5
2019-03-21T14:26:45.506Z,1032.5
2019-03-21T14:31:45.500Z,1032.5
2019-03-21T14:36:45.312Z,1032.5
2019-03-21T14:41:45.493Z,1032.4
2019-03-21T14:46:45.273Z,1032.3
2019-03-21T14:51:45.416Z,1032.4
2019-03-21T14:56:45.290Z,1032.3
2019-03-21T15:01:45.286Z,1032.4
2019-03-21T15:06:45.461Z,1032.5
2019-03-21T15:11:46.143Z,1032.5
2019-03-21T15:16:45.275Z,1032.4
2019-03-21T15:21:45.308Z,1032.4
2019-03-21T15:26:45.435Z,1032.3
2019-03-21T15:31:45.316Z,1032.4
2019-03-21T15:36:45.300Z,1032.5
2019-03-21T15:41:45.378Z,1032.4
2019-03-21T15:46:45.518Z,1032.4
2019-03-21T15:51:45.593Z,1032.4
2019-03-21T15:56:45.354Z,1032.4
2019-03-21T16:01:45.289Z,1032.4
2019-03-21T16:06:45.341Z,1032.4
2019-03-21T16:11:45.333Z,1032.4
2019-03-21T16:16:45.329Z,1032.3
2019-03-21T16:21:45.489Z,1032.4
2019-03-21T16:26:45.395Z,1032.5
2019-03-21T16:31:45.349Z,1032.4
2019-03-21T16:36:45.360Z,1032.6
2019-03-21T16:41:45.352Z,1032.5
2019-03-21T16:46:45.331Z,1032.6
2019-03-21T16:51:45.383Z,1032.7
2019-03-21T16:56:45.359Z,1032.7
2019-03-21T17:01:45.354Z,1032.8
2019-03-21T17:06:45.410Z,1032.7
2019-03-21T17:11:45.358Z,1033
2019-03-21T17:16:45.409Z,1032.9
2019-03-21T17:21:45.373Z,1033
2019-03-21T17:26:45.369Z,1033.1
2019-03-21T17:31:45.383Z,1033.1
2019-03-21T17:36:45.479Z,1033.1
2019-03-21T17:41:45.497Z,1033.2
2019-03-21T17:46:45.404Z,1033.3
2019-03-21T17:51:47.179Z,1033.3
2019-03-21T17:56:45.380Z,1033.3
2019-03-21T18:01:45.609Z,1033.3
2019-03-21T18:06:45.391Z,1033.3
2019-03-21T18:11:45.410Z,1033.5
2019-03-21T18:16:45.642Z,1033.5
2019-03-21T18:21:45.357Z,1033.5
2019-03-21T18:26:45.636Z,1033.6
2019-03-21T18:31:45.507Z,1033.6
2019-03-21T18:36:45.412Z,1033.6
2019-03-21T18:41:45.625Z,1033.6
2019-03-21T18:46:45.603Z,1033.5
2019-03-21T18:51:45.508Z,1033.6
2019-03-21T18:56:45.486Z,1033.6
2019-03-21T19:01:58.980Z,1033.6
2019-03-21T19:06:45.597Z,1033.6
2019-03-21T19:11:45.535Z,1033.6
2019-03-21T19:16:45.567Z,1033.9
2019-03-21T19:21:45.529Z,1033.8
2019-03-21T19:26:45.562Z,1033.8
2019-03-21T19:31:45.546Z,1033.9
2019-03-21T19:36:45.568Z,1033.7
2019-03-21T19:41:45.531Z,1033.7
2019-03-21T19:46:45.565Z,1033.8
2019-03-21T19:51:45.432Z,1033.7
2019-03-21T19:56:45.554Z,1033.7
2019-03-21T20:01:45.468Z,1033.8
2019-03-21T20:06:45.474Z,1033.7
2019-03-21T20:11:45.448Z,1033.9
2019-03-21T20:16:45.636Z,1033.9
2019-03-21T20:21:48.717Z,1033.9
2019-03-21T20:26:45.630Z,1034
2019-03-21T20:31:45.498Z,1034
2019-03-21T20:36:45.477Z,1034
2019-03-21T20:41:45.548Z,1034.1
2019-03-21T20:46:45.642Z,1034.1
2019-03-21T20:51:45.534Z,1034.2
2019-03-21T20:56:46.019Z,1034.3
2019-03-21T21:01:45.519Z,1034.4
2019-03-21T21:06:45.466Z,1034.5
2019-03-21T21:11:45.524Z,1034.4
2019-03-21T21:16:45.626Z,1034.4
2019-03-21T21:21:45.542Z,1034.4
2019-03-21T21:26:45.490Z,1034.5
2019-03-21T21:31:46.366Z,1034.5
2019-03-21T21:36:45.536Z,1034.5
2019-03-21T21:41:45.470Z,1034.6
2019-03-21T21:46:45.496Z,1034.6
2019-03-21T21:51:45.493Z,1034.6
2019-03-21T21:56:45.520Z,1034.6
2019-03-21T22:01:45.509Z,1034.5
2019-03-21T22:06:45.530Z,1034.5
2019-03-21T22:11:45.497Z,1034.6
2019-03-21T22:16:45.498Z,1034.5
2019-03-21T22:21:45.514Z,1034.7
2019-03-21T22:26:45.557Z,1034.7
2019-03-21T22:31:45.837Z,1034.8
2019-03-21T22:36:50.484Z,1034.8
2019-03-21T22:41:45.503Z,1034.7
2019-03-21T22:46:45.527Z,1034.8
2019-03-21T22:51:45.568Z,1034.7
2019-03-21T22:56:45.523Z,1034.8
2019-03-21T23:01:45.736Z,1034.7
2019-03-21T23:06:45.671Z,1034.7
2019-03-21T23:11:45.708Z,1034.7
2019-03-21T23:16:45.532Z,1034.6
2019-03-21T23:21:45.663Z,1034.6
2019-03-21T23:26:53.634Z,1034.6
2019-03-21T23:31:45.659Z,1034.7
2019-03-21T23:36:45.626Z,1034.7
2019-03-21T23:41:45.535Z,1034.8
2019-03-21T23:46:45.746Z,1034.8
2019-03-21T23:51:45.530Z,1034.7
2019-03-21T23:56:45.548Z,1034.7
